Piney Flats, Tennessee
Current Conditions -  °F | °C
As of 12:53 AM on Sunday 26 Oct 2014 (Local Time) from KTRI Reporting Station
Few Clouds Few Clouds  
Wind Chill: 53°   Ceiling: Unl
Heat Index: 53°   Visibility: 10mi
Dew Point: 48°   Wind: 5mph
Humidity: 83%   Direction: 250°WSW
Pressure: 29.99"   Gusts: NA
Location:  36.42°N, 82.3°W
Report Text: KTRI 260453Z 25004KT 10SM FEW150 12/09 A2999 RMK AO2 SLP141 T01170089 402060006
Loading
Personal Weather Stations






























Interactive Weather Map
Tropical Storm Tracking
New forecast layout! Learn more

10-Day Weather Forecast

Advertisements
Track Severe Weather on mobile